createdAt,value
2019-06-08T00:00:48.342Z,27.40
2019-06-08T00:03:20.846Z,27.40
2019-06-08T00:05:53.156Z,27.50
2019-06-08T00:08:25.740Z,27.50
2019-06-08T00:10:59.488Z,27.50
2019-06-08T00:13:32.254Z,27.60
2019-06-08T00:16:03.158Z,27.60
2019-06-08T00:18:36.214Z,27.70
2019-06-08T00:21:09.806Z,27.70
2019-06-08T00:23:43.034Z,27.80
2019-06-08T00:26:15.991Z,27.80
2019-06-08T00:28:48.247Z,27.90
2019-06-08T00:31:21.811Z,27.90
2019-06-08T00:33:54.714Z,28.00
2019-06-08T00:36:27.376Z,28.10
2019-06-08T00:39:00.853Z,28.10
2019-06-08T00:41:34.758Z,28.10
2019-06-08T00:44:08.784Z,28.20
2019-06-08T00:46:42.063Z,28.30
2019-06-08T00:49:16.419Z,28.30
2019-06-08T00:51:51.969Z,28.40
2019-06-08T00:54:25.832Z,28.40
2019-06-08T00:56:59.402Z,28.50
2019-06-08T00:59:32.693Z,28.50
2019-06-08T01:02:05.085Z,28.60
2019-06-08T01:04:38.717Z,28.60
2019-06-08T01:07:12.225Z,28.70
2019-06-08T01:09:45.967Z,28.70
2019-06-08T01:12:18.694Z,28.80
2019-06-08T01:14:50.892Z,28.90
2019-06-08T01:17:25.136Z,28.90
2019-06-08T01:19:57.647Z,29.00
2019-06-08T01:22:30.890Z,29.00
2019-06-08T01:25:04.120Z,29.00
2019-06-08T01:27:37.882Z,29.10
2019-06-08T01:30:11.373Z,29.10
2019-06-08T01:32:43.945Z,29.20
2019-06-08T01:35:17.480Z,29.20
2019-06-08T01:37:50.774Z,29.30
2019-06-08T01:40:25.279Z,29.30
2019-06-08T01:42:58.848Z,29.30
2019-06-08T01:45:32.859Z,29.30
2019-06-08T01:48:19.670Z,29.30
2019-06-08T01:50:42.780Z,29.40
2019-06-08T01:53:16.251Z,29.40
2019-06-08T01:55:48.640Z,29.50
2019-06-08T01:58:25.276Z,29.40
2019-06-08T02:00:59.243Z,29.40
2019-06-08T02:03:34.668Z,29.50
2019-06-08T02:06:07.926Z,29.50
2019-06-08T02:08:41.470Z,29.50
2019-06-08T02:11:14.138Z,29.50
2019-06-08T02:13:45.048Z,29.60
2019-06-08T02:16:17.533Z,29.60
2019-06-08T02:18:51.361Z,29.60
2019-06-08T02:21:24.055Z,29.70
2019-06-08T02:23:59.195Z,29.70
2019-06-08T02:26:35.131Z,29.90
2019-06-08T02:29:06.825Z,30.00
2019-06-08T02:31:39.279Z,30.10
2019-06-08T02:34:13.253Z,30.10
2019-06-08T02:36:49.328Z,30.20
2019-06-08T02:39:22.917Z,30.30
2019-06-08T02:41:56.603Z,30.30
2019-06-08T02:44:30.242Z,30.30
2019-06-08T02:47:02.854Z,30.40
2019-06-08T02:49:35.528Z,30.50
2019-06-08T02:52:09.847Z,30.50
2019-06-08T02:54:43.628Z,30.50
2019-06-08T02:57:17.423Z,30.50
2019-06-08T02:59:51.619Z,30.60
2019-06-08T03:02:24.574Z,30.80
2019-06-08T03:04:58.569Z,30.80
2019-06-08T03:07:34.247Z,30.90
2019-06-08T03:10:08.386Z,30.90
2019-06-08T03:12:42.504Z,31.10
2019-06-08T03:15:16.147Z,31.10
2019-06-08T03:17:49.727Z,31.10
2019-06-08T03:20:23.187Z,31.10
2019-06-08T03:22:57.084Z,31.20
2019-06-08T03:25:29.883Z,31.20
2019-06-08T03:28:02.390Z,31.20
2019-06-08T03:30:38.895Z,31.20
2019-06-08T03:33:08.716Z,31.30
2019-06-08T03:35:52.683Z,31.20
2019-06-08T03:38:14.780Z,31.30
2019-06-08T03:40:48.313Z,31.40
2019-06-08T03:43:21.833Z,31.50
2019-06-08T03:45:54.877Z,31.70
2019-06-08T03:48:27.745Z,31.70
2019-06-08T03:51:02.050Z,31.80
2019-06-08T03:53:37.707Z,31.90
2019-06-08T03:56:10.652Z,31.90
2019-06-08T03:58:44.709Z,31.80
2019-06-08T04:01:18.266Z,31.70
2019-06-08T04:03:50.703Z,31.70
2019-06-08T04:06:24.423Z,31.60
2019-06-08T04:08:56.975Z,31.50
2019-06-08T04:11:28.898Z,31.40
2019-06-08T04:14:01.420Z,31.40
2019-06-08T04:16:33.912Z,31.50
2019-06-08T04:19:06.486Z,31.60
2019-06-08T04:21:37.905Z,31.70
2019-06-08T04:24:10.421Z,31.70
2019-06-08T04:26:42.939Z,31.70
2019-06-08T04:29:16.527Z,31.70
2019-06-08T04:31:50.141Z,31.80
2019-06-08T04:34:25.661Z,31.90
2019-06-08T04:36:59.623Z,32.00
2019-06-08T04:39:33.067Z,32.10
2019-06-08T04:42:06.715Z,32.00
2019-06-08T04:44:40.526Z,32.00
2019-06-08T04:47:14.799Z,31.90
2019-06-08T04:49:48.906Z,31.80
2019-06-08T04:52:21.379Z,31.70
2019-06-08T04:54:55.017Z,31.80
2019-06-08T04:57:27.504Z,31.90
2019-06-08T05:00:11.230Z,32.10
2019-06-08T05:02:34.526Z,32.30
2019-06-08T05:05:09.520Z,32.50
2019-06-08T05:07:43.601Z,32.60
2019-06-08T05:10:16.854Z,32.80
2019-06-08T05:12:50.169Z,32.80
2019-06-08T05:15:22.722Z,32.80
2019-06-08T05:17:55.656Z,32.80
2019-06-08T05:20:38.552Z,32.70
2019-06-08T05:23:02.778Z,32.60
2019-06-08T05:25:38.988Z,32.50
2019-06-08T05:28:12.455Z,32.40
2019-06-08T05:30:47.368Z,32.20
2019-06-08T05:33:20.306Z,31.90
2019-06-08T05:35:53.934Z,31.70
2019-06-08T05:38:27.222Z,31.50
2019-06-08T05:40:59.756Z,31.20
2019-06-08T05:43:30.858Z,30.90
2019-06-08T05:46:03.307Z,30.70
2019-06-08T05:48:39.656Z,30.50
2019-06-08T05:51:14.446Z,30.40
2019-06-08T05:53:48.213Z,30.20
2019-06-08T05:56:22.183Z,30.20
2019-06-08T05:58:54.551Z,30.00
2019-06-08T06:01:28.018Z,30.00
2019-06-08T06:04:01.660Z,29.90
2019-06-08T06:06:35.152Z,29.90
2019-06-08T06:09:09.392Z,29.80
2019-06-08T06:11:42.813Z,29.90
2019-06-08T06:14:16.696Z,29.90
2019-06-08T06:16:51.361Z,29.90
2019-06-08T06:19:24.779Z,30.00
2019-06-08T06:21:57.208Z,30.00
2019-06-08T06:24:30.744Z,30.20
2019-06-08T06:27:04.291Z,30.30
2019-06-08T06:29:36.766Z,30.40
2019-06-08T06:32:09.367Z,30.70
2019-06-08T06:34:43.808Z,30.80
2019-06-08T06:37:16.278Z,31.00
2019-06-08T06:39:49.950Z,31.20
2019-06-08T06:42:24.950Z,31.30
2019-06-08T06:44:59.016Z,31.40
2019-06-08T06:47:31.500Z,31.40
2019-06-08T06:50:02.868Z,31.40
2019-06-08T06:52:36.837Z,31.40
2019-06-08T06:55:09.454Z,31.40
2019-06-08T06:57:43.486Z,31.50
2019-06-08T07:00:17.898Z,31.60
2019-06-08T07:02:53.929Z,31.70
2019-06-08T07:05:27.637Z,31.80
2019-06-08T07:08:01.451Z,31.90
2019-06-08T07:10:33.907Z,32.00
2019-06-08T07:13:07.243Z,32.10
2019-06-08T07:15:41.736Z,32.10
2019-06-08T07:18:14.661Z,32.20
2019-06-08T07:20:48.538Z,32.30
2019-06-08T07:23:21.034Z,32.40
2019-06-08T07:25:55.167Z,32.40
2019-06-08T07:28:28.556Z,32.40
2019-06-08T07:31:01.513Z,32.50
2019-06-08T07:33:34.183Z,32.50
2019-06-08T07:36:06.204Z,32.60
2019-06-08T07:38:39.476Z,32.60
2019-06-08T07:41:12.272Z,32.70
2019-06-08T07:43:49.230Z,32.70
2019-06-08T07:46:23.111Z,32.80
2019-06-08T07:48:56.586Z,32.90
2019-06-08T07:51:30.285Z,32.90
2019-06-08T07:54:03.376Z,33.00
2019-06-08T07:56:35.839Z,33.00
2019-06-08T07:59:07.922Z,33.10
2019-06-08T08:01:41.527Z,33.10
2019-06-08T08:04:14.053Z,33.10
2019-06-08T08:06:48.352Z,33.10
2019-06-08T08:09:20.812Z,33.10
2019-06-08T08:11:53.374Z,33.10
2019-06-08T08:14:27.565Z,33.20
2019-06-08T08:17:00.786Z,33.20
2019-06-08T08:19:33.187Z,33.20
2019-06-08T08:22:19.612Z,33.20
2019-06-08T08:24:40.875Z,33.20
2019-06-08T08:27:14.562Z,33.20
2019-06-08T08:29:48.952Z,33.20
2019-06-08T08:32:21.961Z,33.20
2019-06-08T08:34:54.369Z,33.30
2019-06-08T08:37:28.284Z,33.30
2019-06-08T08:40:03.406Z,33.30
2019-06-08T08:42:38.588Z,33.30
2019-06-08T08:45:13.119Z,33.30
2019-06-08T08:47:45.649Z,33.30
2019-06-08T08:50:18.618Z,33.30
2019-06-08T08:52:50.735Z,33.30
2019-06-08T08:55:24.523Z,33.30
2019-06-08T08:57:59.414Z,33.30
2019-06-08T09:00:33.090Z,33.30
2019-06-08T09:03:24.304Z,33.30
2019-06-08T09:05:41.439Z,33.30
2019-06-08T09:08:14.947Z,33.20
2019-06-08T09:10:48.369Z,33.20
2019-06-08T09:13:22.051Z,33.20
2019-06-08T09:16:00.198Z,33.20
2019-06-08T09:18:31.937Z,33.20
2019-06-08T09:21:08.142Z,33.10
2019-06-08T09:23:39.337Z,33.10
2019-06-08T09:26:13.095Z,33.10
2019-06-08T09:28:44.518Z,33.00
2019-06-08T09:31:18.672Z,33.00
2019-06-08T09:33:59.502Z,33.00
2019-06-08T09:36:28.496Z,32.90
2019-06-08T09:39:03.140Z,32.90
2019-06-08T09:41:37.906Z,32.80
2019-06-08T09:44:11.652Z,32.90
2019-06-08T09:46:43.678Z,32.90
2019-06-08T09:49:18.518Z,32.80
2019-06-08T09:51:50.709Z,32.80
2019-06-08T09:54:23.196Z,32.80
2019-06-08T09:56:55.805Z,32.80
2019-06-08T09:59:29.713Z,32.70
2019-06-08T10:02:07.448Z,32.70
2019-06-08T10:04:38.667Z,32.70
2019-06-08T10:07:11.398Z,32.60
2019-06-08T10:09:43.674Z,32.50
2019-06-08T10:12:18.188Z,32.50
2019-06-08T10:14:50.751Z,32.40
2019-06-08T10:17:24.723Z,32.30
2019-06-08T10:20:00.219Z,32.30
2019-06-08T10:22:32.192Z,32.20
2019-06-08T10:25:06.592Z,32.20
2019-06-08T10:27:38.607Z,32.10
2019-06-08T10:30:11.747Z,32.10
2019-06-08T10:32:44.230Z,32.00
2019-06-08T10:35:21.647Z,31.90
2019-06-08T10:37:56.541Z,31.90
2019-06-08T10:40:29.985Z,31.80
2019-06-08T10:43:03.386Z,31.80
2019-06-08T10:45:36.357Z,31.70
2019-06-08T10:48:07.557Z,31.70
2019-06-08T10:50:41.017Z,31.60
2019-06-08T10:53:16.730Z,31.60
2019-06-08T10:55:50.271Z,31.60
2019-06-08T10:58:24.113Z,31.50
2019-06-08T11:00:59.703Z,31.50
2019-06-08T11:03:30.735Z,31.50
2019-06-08T11:06:04.447Z,31.50
2019-06-08T11:08:38.866Z,31.40
2019-06-08T11:11:12.084Z,31.50
2019-06-08T11:13:44.342Z,31.40
2019-06-08T11:16:17.954Z,31.40
2019-06-08T11:18:51.138Z,31.40
2019-06-08T11:21:23.594Z,31.40
2019-06-08T11:24:07.343Z,31.40
2019-06-08T11:26:31.562Z,31.30
2019-06-08T11:29:09.594Z,31.30
2019-06-08T11:31:39.785Z,31.30
2019-06-08T11:34:14.330Z,31.30
2019-06-08T11:36:51.348Z,31.20
2019-06-08T11:39:21.947Z,31.20
2019-06-08T11:41:55.532Z,31.20
2019-06-08T11:44:28.093Z,31.20
2019-06-08T11:47:02.548Z,31.10
2019-06-08T11:49:38.565Z,31.10
2019-06-08T11:52:12.402Z,31.10
2019-06-08T11:54:47.935Z,31.10
2019-06-08T11:57:20.605Z,31.20
2019-06-08T11:59:53.921Z,31.20
2019-06-08T12:02:27.613Z,31.20
2019-06-08T12:05:00.248Z,31.20
2019-06-08T12:07:31.556Z,31.20
2019-06-08T12:10:04.560Z,31.20
2019-06-08T12:12:38.477Z,31.20
2019-06-08T12:15:13.706Z,31.10
2019-06-08T12:17:48.243Z,31.10
2019-06-08T12:20:24.308Z,31.10
2019-06-08T12:22:55.156Z,31.00
2019-06-08T12:25:26.429Z,31.00
2019-06-08T12:27:59.815Z,30.90
2019-06-08T12:30:32.580Z,30.90
2019-06-08T12:33:09.801Z,30.80
2019-06-08T12:35:44.272Z,30.80
2019-06-08T12:38:19.148Z,30.80
2019-06-08T12:40:52.731Z,30.70
2019-06-08T12:43:25.197Z,30.70
2019-06-08T12:45:59.133Z,30.70
2019-06-08T12:48:32.659Z,30.70
2019-06-08T12:51:05.353Z,30.70
2019-06-08T12:53:38.305Z,30.70
2019-06-08T12:56:14.807Z,30.70
2019-06-08T12:58:47.710Z,30.70
2019-06-08T13:01:20.297Z,30.80
2019-06-08T13:03:54.191Z,30.70
2019-06-08T13:06:28.289Z,30.70
2019-06-08T13:09:01.347Z,30.70
2019-06-08T13:11:36.670Z,30.60
2019-06-08T13:14:11.834Z,30.60
2019-06-08T13:16:45.106Z,30.50
2019-06-08T13:19:20.015Z,30.40
2019-06-08T13:21:53.763Z,30.40
2019-06-08T13:24:28.434Z,30.40
2019-06-08T13:27:01.497Z,30.30
2019-06-08T13:29:39.015Z,30.30
2019-06-08T13:32:13.800Z,30.20
2019-06-08T13:34:47.270Z,30.20
2019-06-08T13:37:21.698Z,30.20
2019-06-08T13:39:59.241Z,30.20
2019-06-08T13:42:33.273Z,30.10
2019-06-08T13:45:07.888Z,30.10
2019-06-08T13:47:41.345Z,30.10
2019-06-08T13:50:20.366Z,30.10
2019-06-08T13:52:53.171Z,30.10
2019-06-08T13:55:42.329Z,30.10
2019-06-08T13:58:02.160Z,30.10
2019-06-08T14:00:38.611Z,30.10
2019-06-08T14:03:16.226Z,30.10
2019-06-08T14:05:52.785Z,30.10
2019-06-08T14:08:26.524Z,30.10
2019-06-08T14:11:00.951Z,30.20
2019-06-08T14:13:37.972Z,30.10
2019-06-08T14:16:11.554Z,30.10
2019-06-08T14:18:45.843Z,30.10
2019-06-08T14:24:12.969Z,30.10
2019-06-08T14:29:45.093Z,30.00
2019-06-08T14:32:19.109Z,30.00
2019-06-08T14:34:51.393Z,29.90
2019-06-08T14:37:22.878Z,29.90
2019-06-08T14:39:58.637Z,29.80
2019-06-08T14:42:32.119Z,29.80
2019-06-08T14:45:07.753Z,29.80
2019-06-08T14:47:43.144Z,29.70
2019-06-08T14:50:21.398Z,29.70
2019-06-08T14:52:54.713Z,29.60
2019-06-08T14:55:32.018Z,29.60
2019-06-08T15:03:50.977Z,29.40
2019-06-08T15:09:29.859Z,29.40
2019-06-08T15:12:04.087Z,29.40
2019-06-08T15:14:38.468Z,29.40
2019-06-08T15:17:19.498Z,29.40
2019-06-08T15:19:54.124Z,29.40
2019-06-08T15:22:43.192Z,29.40
2019-06-08T15:25:18.372Z,29.30
2019-06-08T15:27:52.662Z,29.30
2019-06-08T15:30:28.079Z,29.30
2019-06-08T15:32:59.263Z,29.30
2019-06-08T15:35:33.666Z,29.30
2019-06-08T15:38:08.310Z,29.30
2019-06-08T15:40:42.647Z,29.30
2019-06-08T15:43:18.141Z,29.30
2019-06-08T15:45:51.431Z,29.20
2019-06-08T15:48:24.172Z,29.20
2019-06-08T15:50:58.385Z,29.20
2019-06-08T15:53:32.506Z,29.20
2019-06-08T15:56:08.403Z,29.20
2019-06-08T15:58:41.724Z,29.10
2019-06-08T16:01:18.097Z,29.10
2019-06-08T16:03:54.511Z,29.10
2019-06-08T16:06:29.660Z,29.10
2019-06-08T16:09:06.225Z,29.10
2019-06-08T16:11:38.998Z,29.00
2019-06-08T16:14:11.567Z,29.00
2019-06-08T16:16:47.292Z,28.90
2019-06-08T16:19:19.811Z,28.90
2019-06-08T16:21:52.816Z,28.90
2019-06-08T16:24:25.789Z,28.90
2019-06-08T16:26:58.539Z,28.90
2019-06-08T16:29:31.323Z,28.80
2019-06-08T16:32:02.929Z,28.80
2019-06-08T16:34:37.045Z,28.80
2019-06-08T16:37:11.015Z,28.70
2019-06-08T16:39:47.885Z,28.70
2019-06-08T16:42:21.414Z,28.60
2019-06-08T16:44:55.050Z,28.50
2019-06-08T16:47:29.240Z,28.50
2019-06-08T16:50:02.912Z,28.40
2019-06-08T16:52:36.709Z,28.40
2019-06-08T16:55:10.814Z,28.30
2019-06-08T16:57:43.967Z,28.30
2019-06-08T17:00:30.341Z,28.30
2019-06-08T17:02:53.574Z,28.20
2019-06-08T17:05:27.434Z,28.20
2019-06-08T17:08:01.393Z,28.10
2019-06-08T17:10:36.963Z,28.00
2019-06-08T17:13:12.118Z,28.00
2019-06-08T17:15:45.087Z,28.00
2019-06-08T17:18:17.511Z,27.90
2019-06-08T17:20:53.066Z,27.90
2019-06-08T17:23:25.678Z,27.90
2019-06-08T17:25:57.018Z,27.90
2019-06-08T17:28:33.235Z,27.90
2019-06-08T17:31:06.105Z,27.80
2019-06-08T17:33:41.417Z,27.90
2019-06-08T17:36:13.944Z,27.80
2019-06-08T17:38:48.055Z,27.80
2019-06-08T17:41:22.073Z,27.80
2019-06-08T17:43:56.046Z,27.80
2019-06-08T17:46:29.501Z,27.80
2019-06-08T17:49:02.975Z,27.80
2019-06-08T17:51:37.348Z,27.80
2019-06-08T17:54:13.378Z,27.80
2019-06-08T17:56:48.578Z,27.80
2019-06-08T17:59:21.347Z,27.80
2019-06-08T18:01:55.277Z,27.70
2019-06-08T18:04:28.164Z,27.80
2019-06-08T18:07:02.215Z,27.70
2019-06-08T18:09:35.970Z,27.70
2019-06-08T18:12:11.161Z,27.70
2019-06-08T18:14:45.037Z,27.70
2019-06-08T18:17:21.838Z,27.70
2019-06-08T18:19:57.838Z,27.70
2019-06-08T18:22:34.207Z,27.70
2019-06-08T18:25:08.939Z,27.70
2019-06-08T18:28:01.776Z,27.70
2019-06-08T18:30:19.033Z,27.70
2019-06-08T18:32:51.960Z,27.70
2019-06-08T18:35:27.744Z,27.60
2019-06-08T18:38:02.982Z,27.60
2019-06-08T18:40:37.559Z,27.60
2019-06-08T18:43:10.461Z,27.60
2019-06-08T18:45:48.434Z,27.60
2019-06-08T18:48:22.148Z,27.60
2019-06-08T18:50:57.217Z,27.60
2019-06-08T18:53:47.858Z,27.50
2019-06-08T18:56:08.208Z,27.60
2019-06-08T18:58:42.158Z,27.60
2019-06-08T19:01:17.844Z,27.50
2019-06-08T19:03:52.873Z,27.50
2019-06-08T19:06:27.868Z,27.50
2019-06-08T19:09:04.084Z,27.50
2019-06-08T19:11:37.731Z,27.50
2019-06-08T19:14:11.713Z,27.50
2019-06-08T19:16:51.226Z,27.50
2019-06-08T19:19:20.821Z,27.50
2019-06-08T19:21:58.001Z,27.50
2019-06-08T19:24:32.346Z,27.50
2019-06-08T19:27:07.801Z,27.40
2019-06-08T19:29:42.153Z,27.40
2019-06-08T19:32:17.087Z,27.40
2019-06-08T19:34:54.662Z,27.40
2019-06-08T19:37:28.061Z,27.40
2019-06-08T19:40:02.482Z,27.40
2019-06-08T19:42:44.752Z,27.40
2019-06-08T19:45:10.620Z,27.40
2019-06-08T19:47:44.985Z,27.40
2019-06-08T19:50:19.004Z,27.30
2019-06-08T19:52:53.551Z,27.30
2019-06-08T19:55:27.836Z,27.30
2019-06-08T19:58:01.855Z,27.30
2019-06-08T20:00:34.457Z,27.30
2019-06-08T20:03:07.700Z,27.30
2019-06-08T20:05:42.862Z,27.30
2019-06-08T20:08:19.320Z,27.20
2019-06-08T20:10:53.691Z,27.20
2019-06-08T20:13:26.176Z,27.20
2019-06-08T20:16:02.298Z,27.20
2019-06-08T20:18:37.388Z,27.20
2019-06-08T20:21:12.431Z,27.20
2019-06-08T20:23:48.246Z,27.20
2019-06-08T20:26:20.713Z,27.20
2019-06-08T20:29:11.666Z,27.20
2019-06-08T20:31:31.272Z,27.20
2019-06-08T20:34:03.484Z,27.10
2019-06-08T20:36:37.522Z,27.10
2019-06-08T20:39:12.090Z,27.10
2019-06-08T20:41:51.500Z,27.10
2019-06-08T20:44:23.365Z,27.10
2019-06-08T20:46:57.597Z,27.10
2019-06-08T20:49:30.936Z,27.10
2019-06-08T20:52:08.507Z,27.00
2019-06-08T20:54:41.033Z,27.00
2019-06-08T20:57:11.995Z,27.00
2019-06-08T20:59:45.838Z,27.00
2019-06-08T21:02:20.055Z,27.00
2019-06-08T21:04:54.905Z,27.00
2019-06-08T21:07:28.128Z,27.00
2019-06-08T21:10:01.205Z,27.00
2019-06-08T21:12:33.764Z,27.00
2019-06-08T21:15:09.154Z,27.00
2019-06-08T21:17:44.785Z,27.00
2019-06-08T21:20:18.049Z,26.90
2019-06-08T21:22:53.885Z,26.90
2019-06-08T21:25:28.089Z,26.90
2019-06-08T21:28:03.537Z,26.90
2019-06-08T21:30:37.795Z,26.90
2019-06-08T21:33:10.391Z,26.90
2019-06-08T21:35:49.572Z,26.90
2019-06-08T21:38:23.996Z,26.90
2019-06-08T21:41:00.273Z,26.90
2019-06-08T21:43:33.003Z,26.90
2019-06-08T21:46:07.832Z,26.90
2019-06-08T21:48:41.081Z,26.90
2019-06-08T21:51:13.482Z,26.90
2019-06-08T21:53:48.241Z,26.90
2019-06-08T21:56:20.907Z,26.90
2019-06-08T21:58:54.378Z,26.90
2019-06-08T22:01:29.116Z,26.80
2019-06-08T22:04:03.063Z,26.80
2019-06-08T22:06:40.381Z,26.80
2019-06-08T22:09:14.003Z,26.80
2019-06-08T22:11:47.794Z,26.80
2019-06-08T22:14:20.251Z,26.80
2019-06-08T22:16:55.141Z,26.70
2019-06-08T22:19:29.168Z,26.70
2019-06-08T22:22:03.934Z,26.70
2019-06-08T22:24:38.435Z,26.70
2019-06-08T22:27:11.980Z,26.70
2019-06-08T22:29:48.397Z,26.70
2019-06-08T22:32:21.149Z,26.70
2019-06-08T22:34:53.379Z,26.70
2019-06-08T22:37:27.656Z,26.70
2019-06-08T22:40:01.035Z,26.70
2019-06-08T22:42:37.255Z,26.70
2019-06-08T22:45:12.640Z,26.60
2019-06-08T22:47:47.625Z,26.70
2019-06-08T22:50:19.274Z,26.60
2019-06-08T22:52:53.512Z,26.70
2019-06-08T22:55:27.607Z,26.60
2019-06-08T22:58:01.393Z,26.60
2019-06-08T23:00:49.114Z,26.70
2019-06-08T23:03:10.384Z,26.60
2019-06-08T23:05:43.634Z,26.70
2019-06-08T23:08:17.637Z,26.70
2019-06-08T23:10:51.158Z,26.70
2019-06-08T23:13:24.685Z,26.70
2019-06-08T23:15:59.784Z,26.70
2019-06-08T23:18:32.237Z,26.70
2019-06-08T23:21:08.677Z,26.70
2019-06-08T23:23:39.802Z,26.70
2019-06-08T23:26:13.670Z,26.70
2019-06-08T23:28:47.224Z,26.70
2019-06-08T23:31:25.484Z,26.70
2019-06-08T23:33:59.642Z,26.80
2019-06-08T23:36:46.953Z,26.80
2019-06-08T23:39:09.457Z,26.80
2019-06-08T23:41:43.287Z,26.80
2019-06-08T23:44:17.641Z,26.80
2019-06-08T23:46:52.081Z,26.90
2019-06-08T23:49:27.820Z,26.90
2019-06-08T23:52:03.623Z,26.90
2019-06-08T23:54:37.079Z,27.00
2019-06-08T23:57:11.588Z,27.00
2019-06-08T23:59:44.197Z,27.00
